Time;durP1;ratioP1;P1;durP2;ratioP2;P2;SDS_P1;SDS_P2;PMS_P1;PMS_P2;Temp;Humidity;BMP_temperature;BMP_pressure;BME280_temperature;BME280_humidity;BME280_pressure;Samples;Min_cycle;Max_cycle;Signal;HPM_P1;HPM_P2
2023/09/08 00:02:12;;;;;;;6.50;4.65;;;22.70;99.90;;;;;;4974695;28;20025;-43
2023/09/08 00:04:38;;;;;;;10.00;4.63;;;22.70;99.90;;;;;;4992430;28;20515;-40
2023/09/08 00:07:04;;;;;;;6.20;4.38;;;22.70;99.90;;;;;;4962376;28;20491;-38
2023/09/08 00:09:30;;;;;;;7.60;4.93;;;22.70;99.90;;;;;;4993149;28;20028;-38
2023/09/08 00:11:55;;;;;;;6.05;4.72;;;22.70;99.90;;;;;;4975365;28;20034;-37
2023/09/08 00:14:21;;;;;;;6.43;4.30;;;22.70;99.90;;;;;;4993119;28;20034;-41
2023/09/08 00:16:48;;;;;;;7.45;4.72;;;22.60;99.90;;;;;;4991802;28;20030;-37
2023/09/08 00:19:14;;;;;;;8.65;3.45;;;22.50;99.90;;;;;;4977046;28;20027;-41
2023/09/08 00:21:39;;;;;;;5.57;4.68;;;22.50;99.90;;;;;;4996571;28;20387;-40
2023/09/08 00:24:05;;;;;;;7.32;4.80;;;22.40;99.90;;;;;;4996369;28;20081;-39
2023/09/08 00:26:32;;;;;;;7.80;4.47;;;22.50;99.90;;;;;;4996833;28;20030;-41
2023/09/08 00:28:57;;;;;;;14.77;5.18;;;22.40;99.90;;;;;;4996391;28;20493;-41
2023/09/08 00:31:23;;;;;;;9.60;5.10;;;22.50;99.90;;;;;;4996710;28;20034;-42
2023/09/08 00:33:49;;;;;;;11.82;4.90;;;22.40;99.90;;;;;;4993431;28;20379;-40
2023/09/08 00:36:15;;;;;;;6.28;5.05;;;22.40;99.90;;;;;;4995580;28;20022;-40
2023/09/08 00:38:41;;;;;;;7.05;4.75;;;22.40;99.90;;;;;;4995964;28;20034;-39
2023/09/08 00:41:07;;;;;;;7.88;5.50;;;22.30;99.90;;;;;;4995277;28;20030;-38
2023/09/08 00:43:33;;;;;;;6.60;5.13;;;22.30;99.90;;;;;;4978770;28;20442;-38
2023/09/08 00:46:00;;;;;;;6.57;5.25;;;22.30;99.90;;;;;;4996055;28;20105;-41
2023/09/08 00:48:26;;;;;;;11.65;5.53;;;22.20;99.90;;;;;;4995759;28;20422;-39
2023/09/08 00:50:52;;;;;;;8.95;5.28;;;22.20;99.90;;;;;;4994800;28;20153;-38
2023/09/08 00:53:18;;;;;;;9.45;5.32;;;22.20;99.90;;;;;;4994457;28;20358;-41
2023/09/08 00:55:44;;;;;;;7.50;5.63;;;22.20;99.90;;;;;;4995307;28;20034;-38
2023/09/08 00:58:12;;;;;;;8.13;5.60;;;22.10;99.90;;;;;;4995920;28;20038;-38
2023/09/08 01:00:37;;;;;;;9.95;5.72;;;22.10;99.90;;;;;;5003588;28;20410;-38
2023/09/08 01:03:04;;;;;;;10.65;5.38;;;22.10;99.90;;;;;;4999037;28;20084;-39
2023/09/08 01:05:29;;;;;;;10.40;5.75;;;22.10;99.90;;;;;;4995287;28;20026;-40
2023/09/08 01:07:57;;;;;;;8.27;5.50;;;22.00;99.90;;;;;;4995221;28;20368;-40
2023/09/08 01:10:23;;;;;;;7.68;5.80;;;21.90;99.90;;;;;;4994419;28;20034;-39
2023/09/08 01:12:49;;;;;;;10.53;5.70;;;21.90;99.90;;;;;;4995290;28;20034;-41
2023/09/08 01:15:15;;;;;;;8.35;5.30;;;21.90;99.90;;;;;;4995883;28;20495;-38
2023/09/08 01:17:40;;;;;;;7.20;5.70;;;21.80;99.90;;;;;;4995491;28;20026;-40
2023/09/08 01:20:49;;;;;;;8.95;6.00;;;21.80;99.90;;;;;;4993526;28;20463;-37
2023/09/08 01:23:15;;;;;;;9.15;5.95;;;21.70;99.90;;;;;;4965270;28;20075;-39
2023/09/08 01:25:52;;;;;;;10.45;6.28;;;21.70;99.90;;;;;;4992674;28;20579;-40
2023/09/08 01:28:20;;;;;;;11.57;5.85;;;21.70;99.90;;;;;;4995531;28;20018;-41
2023/09/08 01:30:46;;;;;;;8.43;6.18;;;21.70;99.90;;;;;;4995039;28;20109;-38
2023/09/08 01:33:12;;;;;;;11.63;6.38;;;21.60;99.90;;;;;;4993347;28;20106;-39
2023/09/08 01:35:38;;;;;;;9.00;6.30;;;21.60;99.90;;;;;;4995357;28;20051;-38
2023/09/08 01:38:03;;;;;;;9.10;5.93;;;21.60;99.90;;;;;;4991867;28;20041;-38
2023/09/08 01:40:29;;;;;;;11.48;6.28;;;21.60;99.90;;;;;;4987364;28;20046;-42
2023/09/08 01:42:55;;;;;;;9.50;6.47;;;21.50;99.90;;;;;;4994270;28;20022;-41
2023/09/08 01:45:20;;;;;;;9.50;6.38;;;21.50;99.90;;;;;;4994383;28;20026;-37
2023/09/08 01:47:46;;;;;;;11.15;6.78;;;21.50;99.90;;;;;;4995040;28;20031;-38
2023/09/08 01:50:12;;;;;;;9.10;6.32;;;21.40;99.90;;;;;;4993872;28;20034;-44
2023/09/08 01:52:37;;;;;;;8.57;6.55;;;21.40;99.90;;;;;;4994667;28;20399;-38
2023/09/08 01:55:03;;;;;;;8.95;6.20;;;21.40;99.90;;;;;;4995185;28;20479;-39
2023/09/08 01:57:29;;;;;;;13.52;7.47;;;21.40;99.90;;;;;;4993941;28;20046;-41
2023/09/08 01:59:54;;;;;;;7.63;5.97;;;21.40;99.90;;;;;;4994280;28;20275;-39
2023/09/08 02:02:20;;;;;;;19.67;7.07;;;21.40;99.90;;;;;;4994682;28;20034;-41
2023/09/08 02:04:47;;;;;;;11.50;7.57;;;21.40;99.90;;;;;;4994724;28;20092;-39
2023/09/08 02:07:13;;;;;;;11.77;6.65;;;21.40;99.90;;;;;;4994228;28;20022;-38
2023/09/08 02:09:39;;;;;;;9.93;6.82;;;21.30;99.90;;;;;;4993794;28;20029;-38
2023/09/08 02:12:05;;;;;;;10.68;7.05;;;21.40;99.90;;;;;;4993939;28;20061;-39
2023/09/08 02:14:30;;;;;;;11.10;6.60;;;21.30;99.90;;;;;;4994590;28;20026;-40
2023/09/08 02:16:57;;;;;;;13.02;7.32;;;21.30;99.90;;;;;;4994347;28;20030;-40
2023/09/08 02:19:23;;;;;;;9.95;6.50;;;21.20;99.90;;;;;;4993699;28;20037;-38
2023/09/08 02:21:48;;;;;;;11.02;6.85;;;21.20;99.90;;;;;;4994394;28;20030;-39
2023/09/08 02:24:14;;;;;;;10.10;6.90;;;21.20;99.90;;;;;;4994258;28;20014;-38
2023/09/08 02:26:40;;;;;;;10.10;6.82;;;21.20;99.90;;;;;;4993635;28;20025;-39
2023/09/08 02:29:07;;;;;;;14.68;7.80;;;21.20;99.90;;;;;;4994232;28;20014;-41
2023/09/08 02:31:33;;;;;;;12.93;7.40;;;21.20;99.90;;;;;;4994453;28;20034;-37
2023/09/08 02:33:59;;;;;;;12.05;7.00;;;21.10;99.90;;;;;;4975807;28;20543;-37
2023/09/08 02:36:26;;;;;;;8.02;6.55;;;21.10;99.90;;;;;;4993641;28;20104;-39
2023/09/08 02:38:52;;;;;;;8.02;6.25;;;21.00;99.90;;;;;;4993908;28;20177;-38
2023/09/08 02:41:18;;;;;;;11.90;7.13;;;21.00;99.90;;;;;;4991554;28;20022;-38
2023/09/08 02:43:44;;;;;;;17.13;7.75;;;21.00;99.90;;;;;;4994184;28;20383;-40
2023/09/08 02:46:09;;;;;;;12.07;7.82;;;21.00;99.90;;;;;;4993592;28;20101;-37
2023/09/08 02:48:35;;;;;;;10.07;7.40;;;20.90;99.90;;;;;;4994005;28;20117;-41
2023/09/08 02:51:01;;;;;;;8.07;6.57;;;20.90;99.90;;;;;;4993425;28;20110;-37
2023/09/08 02:53:28;;;;;;;13.00;7.07;;;20.90;99.90;;;;;;4993864;28;20034;-41
2023/09/08 02:55:57;;;;;;;11.07;7.05;;;20.90;99.90;;;;;;4993459;28;20022;-38
2023/09/08 02:58:23;;;;;;;12.63;6.75;;;20.90;99.90;;;;;;4993706;28;20093;-39
2023/09/08 03:00:51;;;;;;;12.07;7.05;;;20.80;99.90;;;;;;4993113;28;20518;-40
2023/09/08 03:03:20;;;;;;;14.57;8.15;;;20.80;99.90;;;;;;4992593;28;20022;-40
2023/09/08 03:05:46;;;;;;;11.70;7.63;;;20.90;99.90;;;;;;4993560;28;20081;-44
2023/09/08 03:08:11;;;;;;;12.38;7.57;;;20.90;99.90;;;;;;4992897;28;20034;-38
2023/09/08 03:10:37;;;;;;;8.55;6.35;;;20.90;99.90;;;;;;4992829;28;20109;-42
2023/09/08 03:13:06;;;;;;;14.18;8.45;;;20.80;99.90;;;;;;4977133;28;20084;-41
2023/09/08 03:15:31;;;;;;;9.68;7.43;;;20.80;99.90;;;;;;5013191;28;20069;-44
2023/09/08 03:17:58;;;;;;;13.27;7.43;;;20.80;99.90;;;;;;5006314;28;20022;-38
2023/09/08 03:20:28;;;;;;;16.63;7.73;;;20.70;99.90;;;;;;4993262;28;20499;-40
2023/09/08 03:22:54;;;;;;;10.80;6.78;;;20.70;99.90;;;;;;4993469;28;20029;-47
2023/09/08 03:25:20;;;;;;;10.32;7.07;;;20.70;99.90;;;;;;4992930;28;20030;-39
2023/09/08 03:27:46;;;;;;;10.80;8.10;;;20.60;99.90;;;;;;4993425;28;20030;-40
2023/09/08 03:30:12;;;;;;;11.52;7.68;;;20.60;99.90;;;;;;4992899;28;20040;-40
2023/09/08 03:32:38;;;;;;;10.98;6.88;;;20.60;99.90;;;;;;4993125;28;20054;-39
2023/09/08 03:35:07;;;;;;;10.07;7.30;;;20.60;99.90;;;;;;4993227;28;20120;-41
2023/09/08 03:37:34;;;;;;;10.15;7.15;;;20.50;99.90;;;;;;4975712;28;20078;-39
2023/09/08 03:40:00;;;;;;;9.63;6.97;;;20.50;99.90;;;;;;4992426;28;20050;-38
2023/09/08 03:42:26;;;;;;;14.32;6.95;;;20.50;99.90;;;;;;4992962;28;20394;-38
2023/09/08 03:44:51;;;;;;;11.52;7.85;;;20.50;99.90;;;;;;4992705;28;20030;-42
2023/09/08 03:47:17;;;;;;;10.32;7.32;;;20.50;99.90;;;;;;4991411;28;20383;-38
2023/09/08 03:49:42;;;;;;;11.02;7.50;;;20.40;99.90;;;;;;4990679;28;20038;-38
2023/09/08 03:52:08;;;;;;;9.95;7.10;;;20.40;99.90;;;;;;4993027;28;20443;-39
2023/09/08 03:54:34;;;;;;;12.27;8.68;;;20.40;99.90;;;;;;4995294;28;20037;-37
2023/09/08 03:57:00;;;;;;;12.48;7.82;;;20.40;99.90;;;;;;4990080;28;20408;-41
2023/09/08 03:59:25;;;;;;;12.35;8.20;;;20.40;99.90;;;;;;4994525;28;20030;-37
2023/09/08 04:01:51;;;;;;;11.20;7.75;;;20.30;99.90;;;;;;4997033;28;20517;-43
2023/09/08 04:04:17;;;;;;;9.15;7.03;;;20.40;99.90;;;;;;4996205;28;20064;-38
2023/09/08 04:06:43;;;;;;;15.38;9.00;;;20.40;99.90;;;;;;4995463;28;20032;-37
2023/09/08 04:09:09;;;;;;;17.42;9.20;;;20.40;99.90;;;;;;4995800;28;20030;-40
2023/09/08 04:11:34;;;;;;;13.52;7.35;;;20.30;99.90;;;;;;4979362;28;20018;-42
2023/09/08 04:14:00;;;;;;;14.85;8.55;;;20.30;99.90;;;;;;4994883;28;20023;-39
2023/09/08 04:16:26;;;;;;;11.60;8.20;;;20.20;99.90;;;;;;4996736;28;20502;-38
2023/09/08 04:18:51;;;;;;;12.00;8.05;;;20.20;99.90;;;;;;4995921;28;20519;-39
2023/09/08 04:21:17;;;;;;;11.80;8.07;;;20.20;99.90;;;;;;4994878;28;20026;-38
2023/09/08 04:23:43;;;;;;;12.73;7.85;;;20.10;99.90;;;;;;4995821;28;20026;-41
2023/09/08 04:26:08;;;;;;;12.75;8.55;;;20.10;99.90;;;;;;4996323;28;20487;-40
2023/09/08 04:28:34;;;;;;;13.65;8.90;;;20.20;99.90;;;;;;4995074;28;20033;-37
2023/09/08 04:31:09;;;;;;;13.15;8.43;;;20.20;99.90;;;;;;4996436;28;20030;-38
2023/09/08 04:33:34;;;;;;;13.40;8.95;;;20.20;99.90;;;;;;4995153;28;20586;-39
2023/09/08 04:36:00;;;;;;;14.20;8.38;;;20.20;99.90;;;;;;4995891;28;20034;-39
2023/09/08 04:38:26;;;;;;;14.02;8.18;;;20.10;99.90;;;;;;4994646;28;20503;-41
2023/09/08 04:40:51;;;;;;;12.57;8.40;;;20.10;99.90;;;;;;4995680;28;20393;-39
2023/09/08 04:43:17;;;;;;;20.42;9.18;;;20.10;99.90;;;;;;4995369;28;20109;-41
2023/09/08 04:45:42;;;;;;;11.60;8.30;;;20.10;99.90;;;;;;4994464;28;20105;-43
2023/09/08 04:48:08;;;;;;;13.10;8.35;;;20.10;99.90;;;;;;4994092;28;20438;-38
2023/09/08 04:50:34;;;;;;;11.98;8.23;;;20.10;99.90;;;;;;4994469;28;20050;-39
2023/09/08 04:53:00;;;;;;;14.57;8.00;;;20.10;99.90;;;;;;4996092;28;20030;-41
2023/09/08 04:55:25;;;;;;;16.73;8.77;;;20.10;99.90;;;;;;4995266;28;20376;-38
2023/09/08 04:57:51;;;;;;;13.32;8.27;;;20.10;99.90;;;;;;4995936;28;20478;-39
2023/09/08 05:00:17;;;;;;;11.93;8.77;;;20.00;99.90;;;;;;4996102;28;20027;-37
2023/09/08 05:02:43;;;;;;;15.18;8.85;;;20.00;99.90;;;;;;4995257;28;20022;-38
2023/09/08 05:05:09;;;;;;;16.13;8.35;;;20.00;99.90;;;;;;4995100;28;20538;-38
2023/09/08 05:07:34;;;;;;;14.00;8.95;;;20.00;99.90;;;;;;4994662;28;20105;-40
2023/09/08 05:10:00;;;;;;;14.35;8.57;;;19.90;99.90;;;;;;4988568;28;20444;-42
2023/09/08 05:12:25;;;;;;;13.40;8.15;;;19.90;99.90;;;;;;4976971;28;20054;-38
2023/09/08 05:14:56;;;;;;;12.15;8.32;;;19.90;99.90;;;;;;4995561;28;20031;-38
2023/09/08 05:17:23;;;;;;;12.48;8.25;;;19.90;99.90;;;;;;4994594;28;20170;-47
2023/09/08 05:19:48;;;;;;;16.23;9.48;;;19.90;99.90;;;;;;4991063;28;20418;-39
2023/09/08 05:22:14;;;;;;;13.95;8.90;;;19.90;99.90;;;;;;4993477;28;20031;-39
2023/09/08 05:24:40;;;;;;;14.48;9.25;;;19.90;99.90;;;;;;4991205;28;20030;-38
2023/09/08 05:27:05;;;;;;;12.20;8.57;;;19.90;99.90;;;;;;4992183;28;20034;-40
2023/09/08 05:29:31;;;;;;;12.82;9.13;;;20.00;99.90;;;;;;4994486;28;20038;-37
2023/09/08 05:31:56;;;;;;;15.20;8.57;;;20.00;99.90;;;;;;4994686;28;20046;-39
2023/09/08 05:34:22;;;;;;;13.85;8.65;;;20.00;99.90;;;;;;4994492;28;20510;-37
2023/09/08 05:36:48;;;;;;;14.25;8.65;;;20.00;99.90;;;;;;4995267;28;20029;-39
2023/09/08 05:39:15;;;;;;;13.68;8.68;;;20.00;99.90;;;;;;4975862;28;20041;-38
2023/09/08 05:41:40;;;;;;;14.88;9.20;;;20.00;99.90;;;;;;4995189;28;20368;-40
2023/09/08 05:44:06;;;;;;;20.15;9.40;;;20.00;99.90;;;;;;4995433;28;20037;-37
2023/09/08 05:46:32;;;;;;;15.35;8.05;;;20.00;99.90;;;;;;4995008;28;20026;-41
2023/09/08 05:48:57;;;;;;;17.85;9.70;;;20.00;99.90;;;;;;4995189;28;20022;-40
2023/09/08 05:51:23;;;;;;;12.98;9.20;;;20.10;99.90;;;;;;4993482;28;20501;-38
2023/09/08 05:53:49;;;;;;;12.18;8.57;;;20.10;99.90;;;;;;4995167;28;20035;-37
2023/09/08 05:56:14;;;;;;;19.05;9.13;;;20.20;99.90;;;;;;4992771;28;20061;-38
2023/09/08 05:58:40;;;;;;;16.67;8.70;;;20.20;99.90;;;;;;4995256;28;20037;-37
2023/09/08 06:01:07;;;;;;;12.55;8.93;;;20.20;99.90;;;;;;4994123;28;20092;-41
2023/09/08 06:03:32;;;;;;;13.27;8.82;;;20.20;99.90;;;;;;4995211;28;20026;-38
2023/09/08 06:05:58;;;;;;;16.13;9.27;;;20.20;99.90;;;;;;4994147;28;20030;-38
2023/09/08 06:08:24;;;;;;;16.83;9.48;;;20.20;99.90;;;;;;4994505;28;20022;-38
2023/09/08 06:10:50;;;;;;;15.48;8.73;;;20.30;99.90;;;;;;4993357;28;20031;-38
2023/09/08 06:13:16;;;;;;;15.88;9.27;;;20.30;99.90;;;;;;4994443;28;20028;-38
2023/09/08 06:15:41;;;;;;;14.07;8.32;;;20.30;99.90;;;;;;4993339;28;20034;-38
2023/09/08 06:18:08;;;;;;;19.30;9.60;;;20.30;99.90;;;;;;4993196;28;20034;-39
2023/09/08 06:20:33;;;;;;;13.65;9.23;;;20.30;99.90;;;;;;4994490;28;20484;-39
2023/09/08 06:22:59;;;;;;;14.35;9.43;;;20.40;99.90;;;;;;4991842;28;20050;-39
2023/09/08 06:25:26;;;;;;;14.27;9.48;;;20.40;99.90;;;;;;4993847;28;20033;-41
2023/09/08 06:27:51;;;;;;;13.30;9.53;;;20.40;99.90;;;;;;4994241;28;20047;-39
2023/09/08 06:30:18;;;;;;;15.95;9.63;;;20.40;99.90;;;;;;4994185;28;20571;-38
2023/09/08 06:32:43;;;;;;;15.55;9.18;;;20.50;99.90;;;;;;4993558;28;20036;-38
2023/09/08 06:35:10;;;;;;;15.73;9.23;;;20.60;99.90;;;;;;4994064;28;20058;-40
2023/09/08 06:37:39;;;;;;;21.58;10.70;;;20.60;99.90;;;;;;4993553;28;20387;-42
2023/09/08 06:40:06;;;;;;;16.20;9.45;;;20.70;99.90;;;;;;4993790;28;20069;-38
2023/09/08 06:42:32;;;;;;;16.10;9.48;;;20.80;99.90;;;;;;4993909;28;20077;-39
2023/09/08 06:44:59;;;;;;;18.52;9.90;;;20.80;99.90;;;;;;4993187;28;20438;-39
2023/09/08 06:47:25;;;;;;;13.77;9.45;;;20.90;99.90;;;;;;4993670;28;20034;-40
2023/09/08 06:49:50;;;;;;;17.05;10.20;;;21.00;99.90;;;;;;4993811;28;20113;-39
2023/09/08 06:52:17;;;;;;;16.35;9.98;;;21.10;99.90;;;;;;4993601;28;20037;-38
2023/09/08 06:54:45;;;;;;;17.77;9.67;;;21.20;99.90;;;;;;4993696;28;20092;-41
2023/09/08 06:57:12;;;;;;;16.15;9.55;;;21.30;99.90;;;;;;4993927;28;20281;-38
2023/09/08 06:59:37;;;;;;;14.60;9.17;;;21.50;99.90;;;;;;4993596;28;20033;-39
2023/09/08 07:02:04;;;;;;;15.05;9.40;;;21.50;99.90;;;;;;4993721;28;20034;-38
2023/09/08 07:04:30;;;;;;;18.90;9.50;;;21.50;99.90;;;;;;4992560;28;20460;-40
2023/09/08 07:06:55;;;;;;;16.55;9.32;;;21.60;99.90;;;;;;4993785;28;20438;-40
2023/09/08 07:09:21;;;;;;;17.15;9.25;;;21.70;99.90;;;;;;4993632;28;20161;-39
2023/09/08 07:11:47;;;;;;;13.50;9.10;;;21.90;99.90;;;;;;4992625;28;20022;-41
2023/09/08 07:14:12;;;;;;;14.80;9.60;;;22.00;99.90;;;;;;4993509;28;20029;-41
2023/09/08 07:16:38;;;;;;;14.77;8.95;;;22.10;99.90;;;;;;4991593;28;20022;-38
2023/09/08 07:19:04;;;;;;;14.57;8.55;;;22.20;99.90;;;;;;4993348;28;20463;-39
2023/09/08 07:21:30;;;;;;;16.83;9.25;;;22.30;99.90;;;;;;4993239;28;20374;-39
2023/09/08 07:23:56;;;;;;;15.65;9.95;;;22.40;99.90;;;;;;4992164;28;20026;-38
2023/09/08 07:26:21;;;;;;;15.30;9.13;;;22.50;99.90;;;;;;4992495;28;20026;-39
2023/09/08 07:28:48;;;;;;;17.23;10.07;;;22.70;99.90;;;;;;4990670;28;20464;-39
2023/09/08 07:31:14;;;;;;;14.77;8.95;;;22.80;99.90;;;;;;4972455;28;20415;-45
2023/09/08 07:33:40;;;;;;;16.63;9.63;;;22.90;99.90;;;;;;4992197;28;20700;-39
2023/09/08 07:36:07;;;;;;;15.85;9.55;;;23.10;99.90;;;;;;4992878;28;20030;-40
2023/09/08 07:38:33;;;;;;;25.10;10.90;;;23.10;99.90;;;;;;4992982;28;20118;-38
2023/09/08 07:41:00;;;;;;;20.73;9.82;;;23.30;99.90;;;;;;4992416;28;20046;-39
2023/09/08 07:43:26;;;;;;;14.43;9.48;;;23.40;99.90;;;;;;4959972;28;20046;-41
2023/09/08 07:45:52;;;;;;;17.77;9.80;;;23.50;99.90;;;;;;4992536;28;20098;-39
2023/09/08 07:48:18;;;;;;;14.02;9.77;;;23.60;99.90;;;;;;4989642;28;20121;-44
2023/09/08 07:50:43;;;;;;;16.35;9.98;;;23.70;99.90;;;;;;4990134;28;20027;-40
2023/09/08 07:53:09;;;;;;;19.70;9.52;;;23.80;99.90;;;;;;4988619;28;20045;-39
2023/09/08 07:55:35;;;;;;;12.05;8.23;;;23.80;99.90;;;;;;4995055;28;20049;-40
2023/09/08 07:58:03;;;;;;;11.50;7.68;;;23.90;99.90;;;;;;4991638;28;20034;-40
2023/09/08 08:00:29;;;;;;;12.25;8.07;;;24.00;99.90;;;;;;4990185;28;20109;-38
2023/09/08 08:02:56;;;;;;;13.15;7.70;;;24.10;99.90;;;;;;4993118;28;20050;-43
2023/09/08 08:05:22;;;;;;;;;;;24.20;99.90;;;;;;4992670;28;20034;-40
2023/09/08 08:07:48;;;;;;;15.13;9.40;;;24.30;99.90;;;;;;4992497;28;20266;-40
2023/09/08 08:10:14;;;;;;;19.77;9.63;;;24.50;99.90;;;;;;4990636;28;20475;-52
2023/09/08 08:12:41;;;;;;;15.43;9.52;;;24.60;99.90;;;;;;4992212;28;20065;-52
2023/09/08 08:15:09;;;;;;;10.70;8.07;;;24.70;99.90;;;;;;4991536;28;20395;-52
2023/09/08 08:17:36;;;;;;;20.23;9.38;;;24.80;99.90;;;;;;4991702;28;20030;-55
2023/09/08 08:20:06;;;;;;;15.70;9.63;;;24.90;99.90;;;;;;4992407;28;20018;-51
2023/09/08 08:22:33;;;;;;;15.30;9.10;;;25.10;99.90;;;;;;4992899;28;20405;-53
2023/09/08 08:24:59;;;;;;;17.90;9.60;;;25.20;99.90;;;;;;4990628;28;20029;-53
2023/09/08 08:27:25;;;;;;;12.93;8.20;;;25.40;99.90;;;;;;4992877;28;20273;-53
2023/09/08 08:29:51;;;;;;;14.05;9.02;;;25.40;99.90;;;;;;4991522;28;20049;-53
2023/09/08 08:32:17;;;;;;;14.20;9.60;;;25.50;99.90;;;;;;4992789;28;20027;-53
2023/09/08 08:34:42;;;;;;;17.08;9.77;;;25.60;99.90;;;;;;4992859;28;20507;-53
2023/09/08 08:37:08;;;;;;;13.32;8.48;;;25.70;99.90;;;;;;4992808;28;20061;-57
2023/09/08 08:39:34;;;;;;;11.75;8.82;;;25.60;99.90;;;;;;4991972;28;20645;-54
2023/09/08 08:42:08;;;;;;;15.35;8.18;;;25.70;99.90;;;;;;4996565;28;20112;-54
2023/09/08 08:44:34;;;;;;;12.15;8.13;;;25.80;99.90;;;;;;4978902;28;20026;-55
2023/09/08 08:47:02;;;;;;;10.53;7.07;;;25.90;99.90;;;;;;4996292;28;20065;-52
2023/09/08 08:49:31;;;;;;;16.65;9.02;;;25.90;99.90;;;;;;4995495;28;20037;-54
2023/09/08 08:51:58;;;;;;;9.50;7.50;;;26.00;99.90;;;;;;4995446;28;20034;-53
2023/09/08 08:54:24;;;;;;;;;;;26.10;99.90;;;;;;4994508;28;20570;-54
2023/09/08 08:56:50;;;;;;;11.10;6.47;;;26.30;99.90;;;;;;4976988;28;19928;-54
2023/09/08 08:59:16;;;;;;;9.60;7.60;;;26.40;99.90;;;;;;4993605;28;20030;-54
2023/09/08 09:01:42;;;;;;;13.27;7.38;;;26.50;99.90;;;;;;4995354;28;20054;-50
2023/09/08 09:04:09;;;;;;;14.50;7.67;;;26.70;99.90;;;;;;4993599;28;20394;-51
2023/09/08 09:06:35;;;;;;;;;;;26.80;99.90;;;;;;4994479;28;20022;-55
2023/09/08 09:09:03;;;;;;;14.60;7.05;;;26.90;99.90;;;;;;4995307;28;19936;-54
2023/09/08 09:11:31;;;;;;;12.63;6.28;;;26.90;99.90;;;;;;4994144;28;20109;-51
2023/09/08 09:13:58;;;;;;;12.20;7.70;;;27.10;99.90;;;;;;4994071;28;20486;-55
2023/09/08 09:16:29;;;;;;;10.82;5.93;;;27.10;99.90;;;;;;4995332;28;20429;-51
2023/09/08 09:18:56;;;;;;;11.63;6.45;;;27.20;99.90;;;;;;4977654;28;20014;-55
2023/09/08 09:21:22;;;;;;;8.27;6.50;;;27.30;99.90;;;;;;4994466;28;20483;-53
2023/09/08 09:23:47;;;;;;;7.75;6.13;;;27.40;99.90;;;;;;4993947;28;20105;-55
2023/09/08 09:26:24;;;;;;;8.13;6.20;;;27.50;99.90;;;;;;4994784;28;20387;-54
2023/09/08 09:28:52;;;;;;;12.32;6.43;;;27.60;99.90;;;;;;4993411;28;20057;-51
2023/09/08 09:31:18;;;;;;;10.80;6.03;;;27.70;99.90;;;;;;4981800;28;20061;-53
2023/09/08 09:33:45;;;;;;;8.90;6.10;;;27.90;99.90;;;;;;4994887;28;20442;-53
2023/09/08 09:36:20;;;;;;;16.20;6.25;;;28.00;99.90;;;;;;4995566;28;20053;-54
2023/09/08 09:38:47;;;;;;;8.63;5.32;;;28.10;99.90;;;;;;4993852;28;20403;-53
2023/09/08 09:41:12;;;;;;;5.97;5.13;;;28.30;99.90;;;;;;4994251;28;20042;-55
2023/09/08 09:43:38;;;;;;;10.82;4.95;;;28.40;99.90;;;;;;4991126;28;20033;-50
2023/09/08 09:46:08;;;;;;;13.63;5.18;;;28.50;99.90;;;;;;4993749;28;20450;-52
2023/09/08 09:48:35;;;;;;;10.45;6.38;;;28.60;99.90;;;;;;4994581;28;20030;-56
2023/09/08 09:51:20;;;;;;;10.60;6.63;;;28.70;99.90;;;;;;4975838;28;20034;-54
2023/09/08 09:53:47;;;;;;;14.75;6.38;;;28.70;99.90;;;;;;4993737;28;20026;-54
2023/09/08 09:56:15;;;;;;;;;;;28.80;99.90;;;;;;4993233;28;20026;-53
2023/09/08 09:58:41;;;;;;;;;;;28.80;99.90;;;;;;4994174;28;19960;-51
2023/09/08 10:01:07;;;;;;;;;;;28.80;99.90;;;;;;4995561;28;19909;-54
2023/09/08 10:03:33;;;;;;;;;;;29.00;99.90;;;;;;4993062;28;21476;-54
2023/09/08 10:05:59;;;;;;;;;;;29.10;99.90;;;;;;4977750;28;19906;-54
2023/09/08 10:08:25;;;;;;;;;;;29.20;99.90;;;;;;4992826;28;19916;-43
2023/09/08 10:10:50;;;;;;;;;;;29.30;99.90;;;;;;4992264;28;20358;-36
2023/09/08 10:13:25;;;;;;;;;;;29.30;99.90;;;;;;4976852;28;19913;-42
2023/09/08 10:15:52;;;;;;;;;;;29.50;99.90;;;;;;4995000;28;19913;-39
2023/09/08 10:18:19;;;;;;;;;;;29.60;99.90;;;;;;4993529;28;19917;-37
2023/09/08 10:20:44;;;;;;;;;;;29.60;99.90;;;;;;4989770;28;19910;-39
2023/09/08 10:23:24;;;;;;;;;;;29.70;99.90;;;;;;4989920;28;19916;-37
2023/09/08 10:25:54;;;;;;;;;;;29.80;99.90;;;;;;4987588;28;20440;-40
2023/09/08 10:28:21;;;;;;;;;;;30.00;99.90;;;;;;4992929;28;19909;-40
2023/09/08 10:30:47;;;;;;;;;;;30.10;99.90;;;;;;4990884;28;19921;-45
2023/09/08 10:33:14;;;;;;;;;;;30.20;99.90;;;;;;4992813;28;19913;-39
2023/09/08 10:35:40;;;;;;;;;;;30.30;99.90;;;;;;4975739;28;19906;-38
2023/09/08 10:38:24;;;;;;;;;;;30.50;99.90;;;;;;4998925;28;20397;-38
2023/09/08 10:40:50;;;;;;;;;;;30.50;99.90;;;;;;4998489;28;20374;-38
2023/09/08 10:43:15;;;;;;;;;;;30.60;99.90;;;;;;4991613;28;19916;-38
2023/09/08 10:45:41;;;;;;;;;;;30.70;99.90;;;;;;4990158;28;19929;-39
2023/09/08 10:48:07;;;;;;;;;;;30.80;99.90;;;;;;4992205;28;19910;-44
2023/09/08 10:50:34;;;;;;;;;;;30.80;99.90;;;;;;4992834;28;19910;-39
2023/09/08 10:53:05;;;;;;;;;;;30.80;99.90;;;;;;4994426;28;19905;-38
2023/09/08 10:55:40;;;;;;;;;;;30.90;99.90;;;;;;4992776;28;19910;-40
2023/09/08 10:58:06;;;;;;;;;;;31.00;99.90;;;;;;4993293;28;19914;-40
2023/09/08 11:00:45;;;;;;;;;;;31.10;99.90;;;;;;4993544;28;19912;-49
2023/09/08 11:03:11;;;;;;;;;;;31.10;99.90;;;;;;4988334;28;20056;-38
2023/09/08 11:05:36;;;;;;;;;;;31.20;99.90;;;;;;4993758;28;19976;-38
2023/09/08 11:08:03;;;;;;;;;;;31.20;99.90;;;;;;4990628;28;19913;-38
2023/09/08 11:10:30;;;;;;;;;;;31.10;99.90;;;;;;4992582;28;20282;-38
2023/09/08 11:12:56;;;;;;;;;;;31.10;99.90;;;;;;4992407;28;19920;-38
2023/09/08 11:15:21;;;;;;;;;;;31.10;99.90;;;;;;4993662;28;19910;-39
2023/09/08 11:17:50;;;;;;;;;;;31.20;99.90;;;;;;4993873;28;19960;-54
2023/09/08 11:20:16;;;;;;;;;;;31.30;99.90;;;;;;4976255;28;20347;-52
2023/09/08 11:22:43;;;;;;;;;;;31.40;99.90;;;;;;4993207;28;20005;-53
2023/09/08 11:25:12;;;;;;;;;;;31.40;99.90;;;;;;4992025;28;19909;-53
2023/09/08 11:27:39;;;;;;;;;;;31.40;99.90;;;;;;4993800;28;20370;-52
2023/09/08 11:30:06;;;;;;;;;;;31.40;99.90;;;;;;4990019;28;19918;-53
2023/09/08 11:32:32;;;;;;;;;;;31.50;99.90;;;;;;4992287;28;19913;-52
2023/09/08 11:35:01;;;;;;;;;;;31.50;99.90;;;;;;4993742;28;19997;-53
2023/09/08 11:37:27;;;;;;;;;;;31.60;99.90;;;;;;4993473;28;19914;-53
2023/09/08 11:39:53;;;;;;;;;;;31.70;99.90;;;;;;4991866;28;19925;-51
2023/09/08 11:42:21;;;;;;;;;;;31.70;99.90;;;;;;4990373;28;19910;-53
2023/09/08 11:44:47;;;;;;;;;;;31.70;99.90;;;;;;4993500;28;19959;-50
2023/09/08 11:47:15;;;;;;;;;;;31.70;99.90;;;;;;4992594;28;19925;-53
2023/09/08 11:49:41;;;;;;;;;;;31.80;99.90;;;;;;4989974;28;20285;-52
2023/09/08 11:52:07;;;;;;;;;;;31.80;99.90;;;;;;4992507;28;19960;-52
2023/09/08 11:54:37;;;;;;;;;;;31.90;99.90;;;;;;4989940;28;19988;-52
2023/09/08 11:57:04;;;;;;;;;;;31.90;99.90;;;;;;4988273;28;19917;-50
2023/09/08 11:59:33;;;;;;;;;;;31.90;99.90;;;;;;4992549;28;19909;-53
2023/09/08 12:01:59;;;;;;;;;;;31.90;99.90;;;;;;4992224;28;19917;-54
2023/09/08 12:04:24;;;;;;;;;;;31.90;99.90;;;;;;4991138;28;19910;-51
2023/09/08 12:06:51;;;;;;;;;;;32.00;99.90;;;;;;4974247;28;19956;-53
2023/09/08 12:09:17;;;;;;;;;;;32.00;99.90;;;;;;4986958;28;20375;-51
2023/09/08 12:11:43;;;;;;;;;;;32.00;99.90;;;;;;4991800;28;20041;-53
2023/09/08 12:14:09;;;;;;;;;;;32.20;99.90;;;;;;4994103;28;19909;-53
2023/09/08 12:16:35;;;;;;;;;;;32.30;99.90;;;;;;4997104;28;19913;-54
2023/09/08 12:19:01;;;;;;;;;;;32.40;99.90;;;;;;4996619;28;19917;-53
2023/09/08 12:21:26;;;;;;;;;;;32.30;99.90;;;;;;4997000;28;20449;-51
2023/09/08 12:23:52;;;;;;;;;;;32.40;99.90;;;;;;4997008;28;19956;-52
2023/09/08 12:26:18;;;;;;;;;;;32.40;99.90;;;;;;4996106;28;19967;-51
2023/09/08 12:28:44;;;;;;;;;;;32.50;99.90;;;;;;4996947;28;19917;-53
2023/09/08 12:31:10;;;;;;;;;;;32.50;99.90;;;;;;4996121;28;19912;-52
2023/09/08 12:33:35;;;;;;;;;;;32.50;99.90;;;;;;4996918;28;19910;-52
2023/09/08 12:36:14;;;;;;;;;;;32.50;99.90;;;;;;4996786;28;20410;-51
2023/09/08 12:38:40;;;;;;;;;;;32.50;99.90;;;;;;4979414;28;19910;-45
2023/09/08 12:41:05;;;;;;;;;;;32.50;99.90;;;;;;4996600;28;20409;-51
2023/09/08 12:43:31;;;;;;;;;;;32.40;99.90;;;;;;4995750;28;19959;-52
2023/09/08 12:45:57;;;;;;;;;;;32.40;99.90;;;;;;4992745;28;20462;-53
2023/09/08 12:48:22;;;;;;;;;;;32.50;99.90;;;;;;4991088;28;19914;-53
2023/09/08 12:50:48;;;;;;;;;;;32.60;99.90;;;;;;4981039;28;19910;-51
2023/09/08 12:53:14;;;;;;;;;;;32.70;99.90;;;;;;4993553;28;19910;-53
2023/09/08 12:55:40;;;;;;;;;;;32.80;99.90;;;;;;4996216;28;19996;-52
2023/09/08 12:58:05;;;;;;;;;;;32.80;99.90;;;;;;4996055;28;19909;-54